メインページ
METAR-TAF:

METAR-TAF

空港 :

防府北基地

防府, 日本

緯度: 34-02N, 経度: 131-33E, 海抜: 2m

現時点の気象観測

当レポートは3時間28分前の05:30(UTC)に作成
西/北西の風 17kt
気温 22°C
湿度 53%
気圧 1006 hPa
視程10km以上
高度2000ftの雲はほとんどない
高度5000ftの雲は散在している
高度25000ftの千切れ雲あり

METAR: RJOF 240530Z 29017KT 9999 FEW020 SCT050 BKN250 22/12 Q1006 RMK 1CU020 3SC050 A2973

時間: 17:58 (08:58 UTC)


TAF: 見つかりません

4,000以上の空港の気象観測と天気予報(METAR報とTAF報)

利用可能な観測所は地図上に黄色い丸と赤い丸で示す。

丸の上にカーソルを重ねると観測所名を参照できる。

次にクリックすると気象観測と天気予報を参照できる。

マップの切り替え:黒色「×」印の緑ボタンをクリックして拡大、「-」印の緑ボタンをクリックして縮小、緑色の三角印をクリックして隣りの地図に切り替え


METAR-TAF: